Flight Track Log - Related Links

Times and Time Zones

All times are in EST time to prevent confusion due to time zone crossing. See the PDT4226 flight status page for this flight to view local times or setup timezone preferences in your user account.

Time Position Orientation Groundspeed Altitude Reporting Facility
EST Latitude Longitude Course Direction KTS MPH feet Rate Location/Type
Thu 01:47:00 PM 42.0250 -75.9196 180° South  Level Estimated
Thu 01:48:00 PM 41.9791 -75.9046 180° South  Level Estimated
Thu 01:49:00 PM 41.9321 -75.9106 185° South  Level FlightAware Approximate
Thu 01:50:00 PM 41.8852 -75.9164 185° South  Level FlightAware Approximate
Thu 01:51:00 PM 41.8382 -75.9223 185° South  Level FlightAware Approximate
Thu 01:52:00 PM 41.7912 -75.9282 185° South  Level FlightAware Approximate
Thu 01:53:00 PM 41.7457 -75.9114 154° Southeast  Level Estimated
Thu 01:54:00 PM 41.7002 -75.8946 160° South  Level Estimated
Thu 01:55:00 PM 41.6551 -75.8758 163° South  Level FlightAware Approximate
Thu 01:56:00 PM 41.6096 -75.8591 159° South  Level Estimated
Thu 01:57:00 PM 41.5658 -75.8355 158° South  Level FlightAware Approximate
Thu 01:58:00 PM 41.5221 -75.8119 158° South  Level FlightAware Approximate
Thu 01:59:00 PM 41.4765 -75.7957 153° Southeast  Level Estimated
Thu 02:00:00 PM 41.4309 -75.7795 161° South  Level Estimated
Thu 02:01:00 PM 41.3877 -75.7542 156° South  Level FlightAware Approximate
Thu 02:02:00 PM 41.3445 -75.7289 156° South  Level FlightAware Approximate
Thu 02:03:00 PM 41.3013 -75.7036 156° South  Level FlightAware Approximate
Thu 02:04:00 PM 41.2555 -75.6884 162° South  Level Estimated
Thu 02:05:00 PM 41.2111 -75.6672 160° South  Level FlightAware Approximate
Thu 02:06:00 PM 41.1667 -75.6460 160° South  Level FlightAware Approximate
Thu 02:07:00 PM 41.1222 -75.6248 160° South  Level FlightAware Approximate
Thu 02:08:00 PM 41.0778 -75.6036 160° South  Level FlightAware Approximate
Thu 02:09:00 PM 41.0334 -75.5825 160° South  Level FlightAware Approximate
Thu 02:10:00 PM 40.9874 -75.5687 159° South  Level Estimated
Thu 02:11:00 PM 40.9413 -75.5550 163° South  Level Estimated
Thu 02:12:00 PM 40.8969 -75.5341 160° South  Level FlightAware Approximate
Thu 02:13:00 PM 40.8524 -75.5133 161° South  Level FlightAware Approximate
Thu 02:14:00 PM 40.8079 -75.4925 161° South  Level FlightAware Approximate
Thu 02:15:00 PM 40.7634 -75.4718 161° South  Level FlightAware Approximate
Thu 02:16:00 PM 40.7171 -75.4596 190° South  Level Estimated
Thu 02:16:56 PM 40.6833 -75.4667 200° South 164 189 5,000  Level Philadelphia TRACON
Thu 02:17:00 PM 40.6703 -75.4683 188° South  Level FlightAware Approximate
Thu 02:18:00 PM 40.6236 -75.4770 188° South  Level FlightAware Approximate
Thu 02:18:21 PM 40.6167 -75.4833 191° South 166 191 5,000  Level Philadelphia TRACON
Thu 02:19:00 PM 40.5769 -75.4857 188° South  Level FlightAware Approximate
Thu 02:19:14 PM 40.5833 -75.4833 180° South 170 196 5,000  Level Philadelphia TRACON
Thu 02:20:00 PM 40.5302 -75.4944 188° South  Level FlightAware Approximate
Thu 02:20:15 PM 40.5333 -75.4833 180° South 185 213 5,000  Level Philadelphia TRACON
Thu 02:21:00 PM 40.4849 -75.4768 187° South  Level Estimated
Thu 02:21:15 PM 40.4833 -75.4333 143° Southeast 184 212 5,000  Level Philadelphia TRACON
Thu 02:22:00 PM 40.4405 -75.4977 200° South  Level FlightAware Approximate
Thu 02:22:21 PM 40.4500 -75.4000 143° Southeast 185 213 5,000  Level Philadelphia TRACON
Thu 02:23:21 PM 40.4000 -75.3667 153° Southeast 179 206 5,000  Level Philadelphia TRACON
Thu 02:24:26 PM 40.3500 -75.3333 153° Southeast 176 203 5,000  Level Philadelphia TRACON
Thu 02:25:15 PM 40.3167 -75.3167 159° South 177 204 5,000  Level Philadelphia TRACON
Thu 02:26:15 PM 40.2667 -75.3000 166° South 176 203 5,000  Level Philadelphia TRACON
Thu 02:27:21 PM 40.2167 -75.2833 166° South 180 207 5,000  Level Philadelphia TRACON
Thu 02:28:15 PM 40.1833 -75.2667 159° South 178 205 5,000 -53 Level Philadelphia TRACON
Thu 02:29:15 PM 40.1333 -75.2333 153° Southeast 178 205 4,900 -476 Descending Philadelphia TRACON
Thu 02:30:21 PM 40.0667 -75.2167 169° South 177 204 4,000 -432 Descending Philadelphia TRACON
Thu 02:31:20 PM 40.0333 -75.2000 159° South 167 192 4,000  Level Philadelphia TRACON
Thu 02:32:20 PM 39.9833 -75.1833 166° South 167 192 4,000  Level Philadelphia TRACON
Thu 02:33:15 PM 39.9500 -75.1667 159° South 166 191 4,000  Level Philadelphia TRACON
Thu 02:34:15 PM 39.9000 -75.1500 166° South 168 193 4,000  Level Philadelphia TRACON
Thu 02:35:15 PM 39.8667 -75.1167 142° Southeast 170 196 4,000  Level Philadelphia TRACON
Thu 02:36:15 PM 39.8167 -75.1000 166° South 169 194 4,000 -250 Level Philadelphia TRACON
Thu 02:37:15 PM 39.7667 -75.0833 166° South 169 194 3,500 -762 Descending Philadelphia TRACON
Thu 02:38:21 PM 39.7333 -75.1167 218° Southwest 176 203 2,400 -857 Descending Philadelphia TRACON
Thu 02:39:21 PM 39.7667 -75.1667 311° West 170 196 1,700 -571 Descending Philadelphia TRACON
Thu 02:40:27 PM 39.8167 -75.2000 333° Northwest 160 184 1,200 -571 Descending Philadelphia TRACON
Thu 02:41:27 PM 39.8500 -75.2167 339° North 127 146 500 -700 Descending Philadelphia TRACON

Login

Don't have an account? Register now (free) for customized features, flight alerts, and more!